Relevés horaires Bierset (Belgique)


Relevés horaires à Bierset - Jeudi 22 Avr. 2021
Heure UTC1 Température [°C] Vent [km/h] Hum. [%] Pres.4 [hPa] Visi. [Km] Nébu. [octa] Préc.5 [mm] Cond.
2m. Res. Ros. Dir.2 Vit. Moy. Raf.3
23:00 4.0 2.7 0.4 N 5.6 5.6 9.3 77 1028.3(0.8/3h) 30 2/8 -- --
22:00 4.9 3.7 0.5 N 5.6 7.4 11.1 73 1027.9(1.0/3h) 30 2/8 -- --
21:00 6.7 5.3 0.3 NNE 7.4 7.4 11.1 64 1027.7(1.5/3h) 30 2/8 -- --
20:00 6.9 6 0.8 NNE 5.6 5.6 7.4 65 1027.3(1.2/3h) 30 2/8 -- --
19:00 8.2 7.5 0.1 NNE 5.6 5.6 11.1 57 1026.6(0.6/3h) 30 2/8 -- --
18:00 10.7 10.4 0.1 N 5.6 9.3 16.7 48 1025.9(0.1/3h) 30 2/8 0/12h
--
17:00 11.4 11.2 0.3 NE 5.6 7.4 13.0 46 1025.7(-0.4/3h) 30 2/8 -- --
16:00 11.7 11.5 0.7 N 5.6 9.3 14.8 47 1025.7(-0.3/3h) 25 4/8 -- --
15:00 11.5 10.5 0.3 NNE 9.3 9.3 16.7 46 1025.8(-0.4/3h) 25 4/8 -- --
14:00 11.5 10.9 -- NE 7.4 9.3 14.8 -- 1026(-0.3/3h) 25 4/8 -- --
13:00 10.4 9.2 -0.6 NE 9.3 9.3 16.7 46 1026.2(-0.1/3h) 25 4/8 -- --
12:00 9.4 8 -1.0 NNE 9.3 11.1 18.5 48 1026.3(0.0/3h) 25 4/8 0/6h
--
11:00 8.2 6.6 -0.4 NNE 9.3 9.3 14.8 55 1026.6(0.3/3h) 25 4/8 -- --
10:00 7.7 6 -0.7 NE 9.3 11.1 18.5 55 1026.5(0.7/3h) 25 4/8 -- --
09:00 6.8 4.6 -0.7 NE 11.1 11.1 16.7 59 1026.5(1.2/3h) 25 4/8 -- --
08:00 5.7 3.6 -0.9 NNE 9.3 9.3 14.8 62 1026.5(1.6/3h) 20 4/8 -- --
07:00 3.5 2.1 -- NE 5.6 7.4 13.0 -- 1026.1(1.5/3h) 15 5/8 -- --
06:00 1.6 -0 -0.5 NNE 5.6 7.4 11.1 86 1025.7(1.2/3h) 15 5/8 0/12h
--
05:00 0.4 0.4 -1.4 NNE 3.7 3.7 5.6 88 1025.3(0.9/3h) 15 4/8 -- --
04:00 0.3 0.3 -1.8 NNE 3.7 3.7 9.3 86 1024.9(0.9/3h) 20 2/8 -- --
03:00 1.1 1.1 -1.2 NNE 3.7 7.4 11.1 85 1024.6(0.9/3h) 25 1/8 -- --
02:00 2.2 0.7 -0.8 NNE 5.6 7.4 9.3 80 1024.2(1.2/3h) 25 1/8 -- --
01:00 3.0 1.6 -0.1 N 5.6 7.4 11.1 80 1023.7(1.4/3h) 25 1/8 -- --
00:00 3.9 2.6 0.9 N 5.6 9.3 14.8 81 1023.4(1.6/3h) 25 1/8 0/6h
0/24h
--

1 Coordinated Universal Time. Actuellement il est 08:00 locale et 06:00 UTC.

2 Le vent souffle depuis la direction indiquée vers la direction oposée.

3 Les rafales max. sont disponible 40 min après l'heure du relevé.

4 Pour les stations d'altitude (plus de 600m) le géopotentiel du niveau le plus proche de la pression obligatoire est indiqué.

5 Les stations disposant d'un diffuseur peuvent indiquer "trace". Cela signifie que des précipitations ont touchés le sol mais que la quantité est inférieure à 0.1 mm.

Récapitulatif de la journée
Température [°C] Vent [km/h] Ensoleillement4 [h] Precipitations totale5 [mm] Pression [Hpa]
Min1 Max.2 Moy.3 Max. Min Max.
0.1 12.0 8 18.5 0 h 0 min 0 1023.4 1028.3

1 Température minimale relevée entre 18:00 UTC la veille et 18:00 UTC le jour donné.

2 Température maximale relevée entre 06:00 UTC le jour donné et 06:00 UTC le lendemain.

3 Vent moyen de la journée basé sur les relevés horaires.

4 Ensoleillement en heures relevé entre 06:00 UTC la veille et 06:00 UTC le jour donné.

5 Précipitations totales tombées entre 06:00 UTC la jour donné et 06:00 UTC le lendemain.

Graphiques horaires